Time;durP1;ratioP1;P1;durP2;ratioP2;P2;SDS_P1;SDS_P2;PMS_P1;PMS_P2;Temp;Humidity;BMP_temperature;BMP_pressure;BME280_temperature;BME280_humidity;BME280_pressure;Samples;Min_cycle;Max_cycle;Signal;HPM_P1;HPM_P2
2023/06/17 00:00:32;;;;;;;4.00;3.10;;;;;;;;;;5035876;28;93632;-71
2023/06/17 00:02:58;;;;;;;10.57;3.70;;;;;;;;;;5034503;28;92378;-71
2023/06/17 00:05:25;;;;;;;3.55;3.10;;;;;;;;;;5036003;28;93182;-70
2023/06/17 00:07:51;;;;;;;6.75;3.80;;;;;;;;;;5036255;28;93932;-70
2023/06/17 00:10:18;;;;;;;10.18;3.90;;;;;;;;;;5036353;28;92077;-70
2023/06/17 00:12:45;;;;;;;4.13;3.72;;;;;;;;;;5035687;28;92448;-70
2023/06/17 00:15:12;;;;;;;8.90;4.10;;;;;;;;;;5035375;27;93378;-70
2023/06/17 00:17:40;;;;;;;3.85;3.55;;;;;;;;;;5033938;27;94924;-70
2023/06/17 00:20:11;;;;;;;7.22;3.75;;;;;;;;;;5038728;27;95819;-70
2023/06/17 00:22:38;;;;;;;5.55;3.70;;;;;;;;;;5017777;28;92559;-70
2023/06/17 00:25:05;;;;;;;4.10;3.10;;;;;;;;;;5036135;28;93954;-70
2023/06/17 00:27:32;;;;;;;6.75;3.42;;;;;;;;;;5034850;27;92726;-71
2023/06/17 00:29:59;;;;;;;8.52;3.22;;;;;;;;;;5035707;28;92470;-70
2023/06/17 00:32:27;;;;;;;4.43;3.70;;;;;;;;;;5035086;28;93154;-70
2023/06/17 00:34:53;;;;;;;7.40;3.25;;;;;;;;;;5036190;28;93849;-70
2023/06/17 00:37:20;;;;;;;5.82;3.40;;;;;;;;;;5035310;28;92495;-70
2023/06/17 00:39:47;;;;;;;5.65;3.42;;;;;;;;;;5017636;28;93477;-70
2023/06/17 00:42:13;;;;;;;4.43;3.28;;;;;;;;;;5036473;28;95877;-70
2023/06/17 00:44:40;;;;;;;5.18;3.58;;;;;;;;;;5034933;27;96053;-70
2023/06/17 00:47:07;;;;;;;7.13;3.55;;;;;;;;;;5035069;28;93482;-70
2023/06/17 00:49:34;;;;;;;10.93;3.60;;;;;;;;;;5035145;28;92552;-70
2023/06/17 00:52:04;;;;;;;14.85;3.90;;;;;;;;;;5035260;27;93209;-70
2023/06/17 00:54:52;;;;;;;7.17;3.90;;;;;;;;;;5034886;28;94918;-70
2023/06/17 00:57:18;;;;;;;5.47;3.63;;;;;;;;;;5034926;28;92411;-70
2023/06/17 00:59:45;;;;;;;4.88;3.72;;;;;;;;;;5035506;28;93197;-70
2023/06/17 01:02:13;;;;;;;8.38;3.80;;;;;;;;;;5034676;27;92733;-70
2023/06/17 01:04:43;;;;;;;4.95;3.83;;;;;;;;;;5038239;27;92331;-70
2023/06/17 01:07:23;;;;;;;5.95;3.63;;;;;;;;;;5032587;27;94902;-70
2023/06/17 01:09:54;;;;;;;4.90;3.83;;;;;;;;;;5034475;28;92871;-70
2023/06/17 01:12:22;;;;;;;12.45;4.25;;;;;;;;;;5034722;28;93160;-70
2023/06/17 01:14:50;;;;;;;20.65;4.20;;;;;;;;;;5034267;27;94617;-71
2023/06/17 01:17:18;;;;;;;13.60;4.00;;;;;;;;;;5034401;28;92512;-73
2023/06/17 01:19:48;;;;;;;6.47;3.80;;;;;;;;;;5034322;28;92424;-70
2023/06/17 01:22:15;;;;;;;;;;;;;;;;;;5035003;28;93466;-69
2023/06/17 01:24:42;;;;;;;4.68;4.10;;;;;;;;;;5039369;28;118309;-69
2023/06/17 01:27:08;;;;;;;6.68;3.80;;;;;;;;;;5033562;27;93482;-69
2023/06/17 01:29:37;;;;;;;5.53;4.25;;;;;;;;;;5034385;28;92616;-69
2023/06/17 01:32:05;;;;;;;4.35;3.95;;;;;;;;;;5014950;28;94977;-70
2023/06/17 01:34:47;;;;;;;6.75;4.07;;;;;;;;;;5034392;28;93506;-69
2023/06/17 01:37:15;;;;;;;5.10;3.85;;;;;;;;;;5034425;28;92399;-69
2023/06/17 01:39:43;;;;;;;8.90;4.00;;;;;;;;;;5034730;27;94226;-70
2023/06/17 01:42:11;;;;;;;10.48;4.32;;;;;;;;;;5034730;28;94713;-69
2023/06/17 01:44:38;;;;;;;11.77;4.32;;;;;;;;;;5016454;28;92456;-70
2023/06/17 01:47:09;;;;;;;14.70;4.10;;;;;;;;;;5037311;28;93369;-69
2023/06/17 01:49:37;;;;;;;17.15;4.65;;;;;;;;;;5035008;28;92071;-69
2023/06/17 01:52:04;;;;;;;6.07;3.65;;;;;;;;;;5034219;27;92494;-69
2023/06/17 01:54:30;;;;;;;5.53;4.60;;;;;;;;;;5033926;27;93559;-69
2023/06/17 01:56:57;;;;;;;7.45;4.40;;;;;;;;;;5032717;28;95066;-70
2023/06/17 01:59:23;;;;;;;5.82;4.43;;;;;;;;;;5033792;28;95600;-70
2023/06/17 02:01:49;;;;;;;6.00;4.50;;;;;;;;;;5034080;28;93847;-69
2023/06/17 02:04:16;;;;;;;5.53;4.55;;;;;;;;;;5033848;28;92477;-69
2023/06/17 02:06:42;;;;;;;5.25;4.45;;;;;;;;;;5034373;27;93199;-69
2023/06/17 02:09:09;;;;;;;6.95;4.43;;;;;;;;;;5036780;28;93542;-69
2023/06/17 02:11:35;;;;;;;7.20;4.78;;;;;;;;;;5034205;28;94622;-69
2023/06/17 02:14:01;;;;;;;11.00;4.47;;;;;;;;;;5033963;27;92929;-70
2023/06/17 02:16:28;;;;;;;8.15;3.92;;;;;;;;;;5034427;28;92434;-69
2023/06/17 02:18:55;;;;;;;10.23;4.75;;;;;;;;;;5034018;28;93205;-70
2023/06/17 02:21:22;;;;;;;10.00;4.57;;;;;;;;;;5032078;28;96049;-69
2023/06/17 02:23:49;;;;;;;6.45;4.60;;;;;;;;;;5033491;27;92463;-69
2023/06/17 02:26:18;;;;;;;6.95;4.57;;;;;;;;;;5033631;27;93309;-69
2023/06/17 02:28:45;;;;;;;5.18;4.38;;;;;;;;;;5037028;28;93689;-69
2023/06/17 02:31:12;;;;;;;7.30;4.70;;;;;;;;;;5040676;28;92679;-69
2023/06/17 02:33:38;;;;;;;6.35;4.57;;;;;;;;;;5036853;28;93434;-69
2023/06/17 02:36:05;;;;;;;5.03;4.45;;;;;;;;;;5037209;27;92419;-69
2023/06/17 02:38:32;;;;;;;5.25;4.30;;;;;;;;;;5037446;27;93628;-69
2023/06/17 02:40:59;;;;;;;12.05;4.75;;;;;;;;;;5036697;27;93534;-69
2023/06/17 02:43:25;;;;;;;10.75;4.47;;;;;;;;;;5037032;28;92448;-69
2023/06/17 02:45:52;;;;;;;5.68;4.65;;;;;;;;;;5035629;28;96245;-69
2023/06/17 02:48:18;;;;;;;8.07;5.00;;;;;;;;;;5019242;28;93574;-69
2023/06/17 02:50:45;;;;;;;9.60;4.70;;;;;;;;;;5036904;28;92411;-69
2023/06/17 02:53:11;;;;;;;9.02;4.70;;;;;;;;;;5039643;27;93231;-69
2023/06/17 02:55:38;;;;;;;11.93;5.15;;;;;;;;;;5037008;28;92495;-69
2023/06/17 02:58:04;;;;;;;11.27;5.20;;;;;;;;;;5036880;28;93026;-69
2023/06/17 03:00:30;;;;;;;5.57;4.63;;;;;;;;;;5036573;28;93368;-69
2023/06/17 03:02:57;;;;;;;6.80;5.03;;;;;;;;;;5019761;28;91779;-69
2023/06/17 03:05:24;;;;;;;5.50;4.45;;;;;;;;;;5036989;28;92600;-69
2023/06/17 03:07:50;;;;;;;5.72;5.20;;;;;;;;;;5036517;28;93544;-69
2023/06/17 03:10:17;;;;;;;7.85;5.57;;;;;;;;;;5034889;28;94982;-71
2023/06/17 03:12:44;;;;;;;6.72;5.25;;;;;;;;;;5039544;27;95512;-69
2023/06/17 03:15:13;;;;;;;12.55;4.75;;;;;;;;;;5037164;28;92402;-69
2023/06/17 03:17:40;;;;;;;10.93;5.53;;;;;;;;;;5036626;27;93249;-69
2023/06/17 03:20:08;;;;;;;8.43;5.53;;;;;;;;;;5036560;28;94267;-69
2023/06/17 03:22:34;;;;;;;6.18;5.47;;;;;;;;;;5036154;27;92492;-69
2023/06/17 03:25:01;;;;;;;16.38;5.40;;;;;;;;;;5036286;28;93315;-69
2023/06/17 03:27:28;;;;;;;8.85;4.93;;;;;;;;;;5036325;28;93038;-69
2023/06/17 03:29:54;;;;;;;7.82;5.15;;;;;;;;;;5036261;28;92491;-69
2023/06/17 03:32:21;;;;;;;9.23;5.20;;;;;;;;;;5036975;28;94972;-69
2023/06/17 03:34:47;;;;;;;9.48;5.20;;;;;;;;;;5037696;28;95975;-69
2023/06/17 03:37:13;;;;;;;8.35;4.88;;;;;;;;;;5036299;27;93999;-69
2023/06/17 03:39:42;;;;;;;7.72;5.38;;;;;;;;;;5035876;28;94102;-69
2023/06/17 03:42:08;;;;;;;7.35;5.63;;;;;;;;;;5036208;28;92386;-69
2023/06/17 03:44:35;;;;;;;6.18;5.03;;;;;;;;;;5035710;28;93362;-71
2023/06/17 03:47:02;;;;;;;9.65;5.45;;;;;;;;;;5035879;27;93655;-71
2023/06/17 03:49:29;;;;;;;12.20;5.15;;;;;;;;;;5035967;27;92461;-72
2023/06/17 03:51:55;;;;;;;12.55;5.18;;;;;;;;;;5036326;28;93346;-71
2023/06/17 03:54:22;;;;;;;6.10;5.50;;;;;;;;;;5035506;28;93477;-71
2023/06/17 03:56:48;;;;;;;10.90;6.25;;;;;;;;;;5021340;28;92532;-71
2023/06/17 03:59:15;;;;;;;17.33;5.78;;;;;;;;;;5033964;28;96065;-71
2023/06/17 04:01:41;;;;;;;8.13;5.65;;;;;;;;;;5035732;28;92489;-71
2023/06/17 04:04:08;;;;;;;15.23;5.97;;;;;;;;;;5035729;27;93200;-71
2023/06/17 04:06:35;;;;;;;46.28;6.20;;;;;;;;;;5035443;28;93902;-71
2023/06/17 04:09:02;;;;;;;59.20;7.22;;;;;;;;;;5035920;27;92411;-71
2023/06/17 04:11:31;;;;;;;26.23;6.03;;;;;;;;;;5035353;28;93287;-71
2023/06/17 04:13:57;;;;;;;16.05;5.82;;;;;;;;;;5035443;28;93423;-71
2023/06/17 04:16:23;;;;;;;48.70;7.60;;;;;;;;;;5035812;28;91756;-71
2023/06/17 04:18:50;;;;;;;54.75;7.90;;;;;;;;;;5038124;27;92338;-71
2023/06/17 04:21:17;;;;;;;36.38;6.78;;;;;;;;;;5035428;28;92497;-71
2023/06/17 04:23:43;;;;;;;18.13;6.05;;;;;;;;;;5034055;28;94788;-70
2023/06/17 04:26:12;;;;;;;19.48;5.93;;;;;;;;;;5034966;28;93544;-71
2023/06/17 04:28:40;;;;;;;31.73;6.40;;;;;;;;;;5035377;27;92611;-71
2023/06/17 04:31:10;;;;;;;14.18;6.10;;;;;;;;;;5035076;28;93345;-71
2023/06/17 04:33:40;;;;;;;6.78;6.03;;;;;;;;;;5034464;27;93488;-71
2023/06/17 04:36:08;;;;;;;13.35;6.55;;;;;;;;;;5034809;28;92782;-70
2023/06/17 04:38:36;;;;;;;12.43;6.55;;;;;;;;;;5035103;28;92448;-71
2023/06/17 04:41:04;;;;;;;8.35;6.03;;;;;;;;;;5039089;28;93604;-71
2023/06/17 04:43:32;;;;;;;11.38;5.63;;;;;;;;;;5035121;28;92472;-71
2023/06/17 04:46:00;;;;;;;8.45;5.82;;;;;;;;;;5034371;27;93525;-70
2023/06/17 04:48:28;;;;;;;7.38;6.35;;;;;;;;;;5033439;27;94841;-70
2023/06/17 04:50:58;;;;;;;9.73;5.90;;;;;;;;;;5034070;27;95299;-70
2023/06/17 04:53:26;;;;;;;8.45;6.00;;;;;;;;;;5034996;28;94566;-69
2023/06/17 04:55:52;;;;;;;9.60;6.05;;;;;;;;;;5034835;28;92419;-69
2023/06/17 04:58:19;;;;;;;15.13;6.40;;;;;;;;;;5034854;28;93232;-70
2023/06/17 05:00:45;;;;;;;14.43;7.65;;;;;;;;;;5034346;28;93662;-70
2023/06/17 05:03:12;;;;;;;11.52;7.50;;;;;;;;;;5038496;28;92916;-70
2023/06/17 05:05:39;;;;;;;11.85;8.23;;;;;;;;;;5017161;28;93104;-69
2023/06/17 05:08:05;;;;;;;10.32;8.75;;;;;;;;;;5034631;28;92678;-70
2023/06/17 05:10:31;;;;;;;11.77;8.02;;;;;;;;;;5034535;28;93256;-70
2023/06/17 05:12:58;;;;;;;17.30;7.97;;;;;;;;;;5033292;28;95782;-70
2023/06/17 05:15:24;;;;;;;13.75;8.25;;;;;;;;;;5034711;28;92406;-70
2023/06/17 05:17:50;;;;;;;11.65;8.77;;;;;;;;;;5034366;28;93182;-69
2023/06/17 05:20:17;;;;;;;11.57;7.65;;;;;;;;;;5034967;27;95538;-70
2023/06/17 05:22:43;;;;;;;11.05;8.23;;;;;;;;;;5037661;28;92438;-70
2023/06/17 05:25:10;;;;;;;9.65;8.20;;;;;;;;;;5034930;28;94472;-69
2023/06/17 05:27:38;;;;;;;15.27;8.65;;;;;;;;;;5033411;27;92539;-70
2023/06/17 05:30:05;;;;;;;10.93;8.10;;;;;;;;;;5035303;28;94436;-69
2023/06/17 05:32:32;;;;;;;15.25;8.40;;;;;;;;;;4999823;28;94383;-69
2023/06/17 05:34:58;;;;;;;11.55;7.93;;;;;;;;;;5034184;28;92429;-69
2023/06/17 05:37:25;;;;;;;12.13;7.93;;;;;;;;;;5032457;28;94826;-69
2023/06/17 05:39:51;;;;;;;10.90;7.82;;;;;;;;;;5034292;28;94667;-70
2023/06/17 05:42:17;;;;;;;11.85;8.48;;;;;;;;;;5033954;27;92457;-70
2023/06/17 05:44:44;;;;;;;12.88;7.78;;;;;;;;;;5036842;28;93523;-69
2023/06/17 05:47:10;;;;;;;9.13;6.43;;;;;;;;;;5033931;28;92346;-69
2023/06/17 05:49:37;;;;;;;10.73;6.03;;;;;;;;;;5034246;28;93136;-70
2023/06/17 05:52:03;;;;;;;9.75;6.65;;;;;;;;;;5034475;27;96273;-69
2023/06/17 05:54:30;;;;;;;8.93;5.93;;;;;;;;;;5034786;28;92147;-70
2023/06/17 05:56:56;;;;;;;10.02;6.45;;;;;;;;;;5033652;28;92501;-70
2023/06/17 05:59:23;;;;;;;11.38;6.25;;;;;;;;;;5033937;28;93491;-70
2023/06/17 06:01:51;;;;;;;6.65;5.18;;;;;;;;;;5032736;28;94887;-70
2023/06/17 06:04:17;;;;;;;11.68;6.05;;;;;;;;;;5033650;27;95684;-70
2023/06/17 06:06:44;;;;;;;8.07;5.53;;;;;;;;;;5037132;28;93358;-69
2023/06/17 06:09:10;;;;;;;8.05;5.57;;;;;;;;;;5033596;28;93794;-70
2023/06/17 06:11:37;;;;;;;7.50;5.80;;;;;;;;;;5033642;28;93663;-70
2023/06/17 06:14:03;;;;;;;9.98;5.45;;;;;;;;;;5033835;28;92449;-70
2023/06/17 06:16:30;;;;;;;8.05;5.50;;;;;;;;;;5033861;28;93291;-70
2023/06/17 06:18:56;;;;;;;5.95;4.93;;;;;;;;;;5033770;28;92808;-70
2023/06/17 06:21:22;;;;;;;9.60;4.97;;;;;;;;;;5034032;28;92412;-70
2023/06/17 06:23:49;;;;;;;13.88;5.40;;;;;;;;;;5015642;28;93329;-70
2023/06/17 06:26:15;;;;;;;9.48;5.15;;;;;;;;;;5031719;28;98135;-70
2023/06/17 06:28:42;;;;;;;9.65;5.20;;;;;;;;;;5036589;28;92432;-70
2023/06/17 06:31:08;;;;;;;8.93;5.18;;;;;;;;;;5033638;28;94564;-70
2023/06/17 06:33:35;;;;;;;7.78;5.07;;;;;;;;;;5033490;28;92391;-70
2023/06/17 06:36:01;;;;;;;14.07;5.68;;;;;;;;;;5033387;27;93313;-70
2023/06/17 06:38:28;;;;;;;7.55;4.30;;;;;;;;;;5033123;27;93838;-70
2023/06/17 06:40:54;;;;;;;7.53;4.50;;;;;;;;;;5033939;28;92414;-70
2023/06/17 06:43:23;;;;;;;6.13;3.92;;;;;;;;;;5033856;28;92874;-70
2023/06/17 06:45:49;;;;;;;11.48;4.70;;;;;;;;;;5032870;28;93638;-70
2023/06/17 06:48:15;;;;;;;6.50;3.53;;;;;;;;;;5033644;28;92424;-70
2023/06/17 06:50:42;;;;;;;13.70;4.22;;;;;;;;;;5035184;28;96054;-70
2023/06/17 06:53:08;;;;;;;6.03;3.38;;;;;;;;;;5033673;28;92423;-71
2023/06/17 06:55:34;;;;;;;6.80;3.70;;;;;;;;;;5033264;27;93295;-71
2023/06/17 06:58:01;;;;;;;6.95;4.05;;;;;;;;;;5033592;27;93969;-70
2023/06/17 07:00:27;;;;;;;7.80;4.18;;;;;;;;;;5033322;28;92487;-70
2023/06/17 07:02:53;;;;;;;8.85;4.15;;;;;;;;;;5033555;28;94328;-70
2023/06/17 07:05:22;;;;;;;5.72;3.63;;;;;;;;;;5033536;27;94380;-70
2023/06/17 07:07:48;;;;;;;25.48;3.88;;;;;;;;;;5033282;28;91722;-70
2023/06/17 07:10:14;;;;;;;8.98;3.78;;;;;;;;;;5033279;28;92381;-70
2023/06/17 07:12:41;;;;;;;3.85;3.42;;;;;;;;;;5036200;28;93318;-72
2023/06/17 07:15:08;;;;;;;10.07;3.47;;;;;;;;;;5035249;27;95096;-71
2023/06/17 07:17:34;;;;;;;4.75;3.95;;;;;;;;;;5036237;28;93633;-71
2023/06/17 07:20:02;;;;;;;8.68;3.20;;;;;;;;;;5036856;28;92424;-71
2023/06/17 07:22:29;;;;;;;6.25;3.50;;;;;;;;;;5036793;28;94338;-71
2023/06/17 07:24:55;;;;;;;5.65;3.50;;;;;;;;;;5035985;28;92466;-71
2023/06/17 07:27:21;;;;;;;9.18;3.72;;;;;;;;;;5036380;27;93384;-71
2023/06/17 07:29:48;;;;;;;4.25;3.53;;;;;;;;;;5036257;28;92508;-71
2023/06/17 07:32:15;;;;;;;4.50;3.58;;;;;;;;;;5039644;28;91657;-69
2023/06/17 07:34:42;;;;;;;4.60;3.13;;;;;;;;;;5036255;27;93731;-70
2023/06/17 07:37:08;;;;;;;5.22;3.35;;;;;;;;;;5036095;27;93689;-70
2023/06/17 07:39:35;;;;;;;4.50;3.25;;;;;;;;;;5034235;27;94841;-70
2023/06/17 07:42:01;;;;;;;5.63;3.63;;;;;;;;;;5035855;28;95400;-71
2023/06/17 07:44:27;;;;;;;3.85;3.28;;;;;;;;;;5035718;28;93479;-71
2023/06/17 07:46:54;;;;;;;5.68;3.33;;;;;;;;;;5036048;28;92609;-71
2023/06/17 07:49:20;;;;;;;6.93;3.50;;;;;;;;;;5035935;27;92340;-71
2023/06/17 07:51:47;;;;;;;10.27;3.30;;;;;;;;;;5036506;27;93453;-71
2023/06/17 07:54:13;;;;;;;9.48;3.78;;;;;;;;;;5038545;27;92495;-70
2023/06/17 07:56:39;;;;;;;4.47;3.70;;;;;;;;;;5036672;28;93693;-71
2023/06/17 07:59:06;;;;;;;6.70;3.35;;;;;;;;;;5035827;27;92462;-70
2023/06/17 08:01:33;;;;;;;8.07;3.50;;;;;;;;;;5035906;28;93318;-71
2023/06/17 08:03:59;;;;;;;5.10;3.50;;;;;;;;;;5033445;27;95832;-71
2023/06/17 08:06:28;;;;;;;6.45;3.20;;;;;;;;;;5035977;28;92501;-71
2023/06/17 08:08:55;;;;;;;8.05;3.45;;;;;;;;;;5035379;27;93820;-71
2023/06/17 08:11:21;;;;;;;12.55;3.97;;;;;;;;;;5035537;28;93466;-71
2023/06/17 08:13:47;;;;;;;6.65;3.30;;;;;;;;;;5035499;28;92654;-71
2023/06/17 08:16:14;;;;;;;4.22;3.30;;;;;;;;;;5038399;28;93145;-71
2023/06/17 08:18:40;;;;;;;5.20;4.25;;;;;;;;;;5035240;27;92415;-71
2023/06/17 08:21:07;;;;;;;13.77;3.45;;;;;;;;;;5035826;27;93145;-71
2023/06/17 08:23:33;;;;;;;5.25;3.55;;;;;;;;;;5035014;27;92420;-71
2023/06/17 08:25:59;;;;;;;9.00;4.15;;;;;;;;;;5034883;28;92459;-71
2023/06/17 08:28:26;;;;;;;5.63;3.35;;;;;;;;;;5033635;28;94749;-71
2023/06/17 08:30:53;;;;;;;7.18;3.28;;;;;;;;;;5035226;27;92447;-71
2023/06/17 08:33:19;;;;;;;3.95;3.00;;;;;;;;;;5034957;28;92475;-71
2023/06/17 08:35:46;;;;;;;6.30;3.65;;;;;;;;;;5017403;28;93295;-71
2023/06/17 08:38:12;;;;;;;9.10;3.47;;;;;;;;;;5020343;28;93627;-71
2023/06/17 08:40:43;;;;;;;8.38;3.15;;;;;;;;;;5035496;28;93312;-71
2023/06/17 08:43:15;;;;;;;4.97;3.60;;;;;;;;;;5035126;28;94430;-71
2023/06/17 08:45:41;;;;;;;7.65;3.70;;;;;;;;;;5035412;28;91689;-71
2023/06/17 08:48:08;;;;;;;6.25;3.15;;;;;;;;;;5034946;28;92587;-71
2023/06/17 08:50:34;;;;;;;5.47;2.83;;;;;;;;;;5034774;28;93718;-71
2023/06/17 08:53:01;;;;;;;4.88;3.60;;;;;;;;;;5033210;28;94924;-71
2023/06/17 08:55:28;;;;;;;7.80;3.88;;;;;;;;;;5035261;28;95694;-72
2023/06/17 08:57:55;;;;;;;4.80;3.05;;;;;;;;;;5035195;28;94508;-72
2023/06/17 09:00:21;;;;;;;8.63;3.22;;;;;;;;;;5038378;27;92413;-70
2023/06/17 09:02:48;;;;;;;9.10;3.72;;;;;;;;;;5035023;28;93736;-71
2023/06/17 09:05:15;;;;;;;5.32;3.58;;;;;;;;;;5034902;28;92552;-70
2023/06/17 09:07:42;;;;;;;7.95;3.28;;;;;;;;;;5034849;28;92358;-71
2023/06/17 09:10:09;;;;;;;3.95;3.45;;;;;;;;;;5034858;27;93016;-72
2023/06/17 09:12:37;;;;;;;12.10;3.67;;;;;;;;;;5034095;27;92466;-71
2023/06/17 09:15:07;;;;;;;4.95;3.10;;;;;;;;;;5035161;28;93531;-72
2023/06/17 09:17:34;;;;;;;;;;;;;;;;;;5032166;28;95892;-69
2023/06/17 09:20:08;;;;;;;3.45;2.78;;;;;;;;;;5035415;28;118992;-71
2023/06/17 09:22:35;;;;;;;5.07;3.10;;;;;;;;;;5037437;28;93479;-71
2023/06/17 09:25:07;;;;;;;8.02;3.13;;;;;;;;;;5034423;27;92686;-71
2023/06/17 09:27:34;;;;;;;6.65;3.30;;;;;;;;;;5034374;28;94447;-71
2023/06/17 09:30:06;;;;;;;3.53;3.17;;;;;;;;;;5034323;28;92447;-72
2023/06/17 09:32:40;;;;;;;3.97;3.25;;;;;;;;;;5034641;27;92442;-71
2023/06/17 09:35:11;;;;;;;8.45;3.42;;;;;;;;;;5034927;27;93521;-72
2023/06/17 09:37:38;;;;;;;7.45;3.33;;;;;;;;;;5014158;28;93562;-71
2023/06/17 09:40:19;;;;;;;4.75;2.72;;;;;;;;;;5013778;28;92565;-70
2023/06/17 09:42:47;;;;;;;5.35;3.08;;;;;;;;;;5015593;28;94831;-71
2023/06/17 09:45:24;;;;;;;9.02;3.33;;;;;;;;;;5014107;28;92463;-71
2023/06/17 09:47:54;;;;;;;7.75;3.40;;;;;;;;;;5030306;28;94907;-71
2023/06/17 09:50:22;;;;;;;4.00;3.20;;;;;;;;;;5033974;28;93785;-72
2023/06/17 09:52:55;;;;;;;8.75;3.40;;;;;;;;;;5034925;28;92634;-72
2023/06/17 09:55:22;;;;;;;8.50;3.17;;;;;;;;;;5034381;28;93218;-72
2023/06/17 09:57:53;;;;;;;7.53;3.17;;;;;;;;;;5034199;28;94541;-72
2023/06/17 10:00:24;;;;;;;6.95;3.60;;;;;;;;;;5034589;27;91755;-72
2023/06/17 10:02:53;;;;;;;3.83;3.08;;;;;;;;;;5033754;27;92512;-72
2023/06/17 10:05:23;;;;;;;4.88;2.80;;;;;;;;;;5036891;28;93403;-71
2023/06/17 10:07:52;;;;;;;3.97;2.80;;;;;;;;;;5032657;28;94931;-72
2023/06/17 10:10:20;;;;;;;5.38;3.10;;;;;;;;;;5033506;27;93513;-71
2023/06/17 10:12:47;;;;;;;5.60;2.95;;;;;;;;;;5033665;28;92482;-71
2023/06/17 10:15:17;;;;;;;5.32;2.80;;;;;;;;;;5033470;27;92440;-72
2023/06/17 10:17:44;;;;;;;6.07;2.88;;;;;;;;;;5033636;28;93679;-71
2023/06/17 10:20:12;;;;;;;4.45;2.85;;;;;;;;;;5032163;28;92526;-71
2023/06/17 10:22:39;;;;;;;4.35;2.50;;;;;;;;;;5034282;28;94597;-72
2023/06/17 10:25:06;;;;;;;2.83;2.42;;;;;;;;;;5034467;28;91853;-72
2023/06/17 10:27:33;;;;;;;3.00;2.53;;;;;;;;;;5036720;27;92397;-72
2023/06/17 10:29:59;;;;;;;4.35;2.42;;;;;;;;;;5033592;28;93221;-72
2023/06/17 10:32:26;;;;;;;2.55;2.35;;;;;;;;;;5032288;28;95137;-71
2023/06/17 10:35:04;;;;;;;6.53;2.67;;;;;;;;;;5015530;28;96051;-71
2023/06/17 10:37:32;;;;;;;3.00;2.40;;;;;;;;;;5033753;28;94488;-71
2023/06/17 10:40:21;;;;;;;3.08;2.40;;;;;;;;;;5033653;28;93085;-71
2023/06/17 10:42:56;;;;;;;2.63;2.33;;;;;;;;;;5025927;28;93404;-71
2023/06/17 10:45:22;;;;;;;3.35;2.38;;;;;;;;;;5032930;28;92507;-72
2023/06/17 10:47:49;;;;;;;5.15;2.00;;;;;;;;;;5034580;27;92420;-71
2023/06/17 10:50:20;;;;;;;2.47;2.03;;;;;;;;;;5040334;28;93195;-71
2023/06/17 10:52:53;;;;;;;2.30;2.10;;;;;;;;;;5037151;28;92855;-71
2023/06/17 10:55:20;;;;;;;4.35;3.05;;;;;;;;;;5036943;27;93688;-71
2023/06/17 10:57:46;;;;;;;5.25;2.90;;;;;;;;;;5017292;28;96290;-73
2023/06/17 11:00:12;;;;;;;3.92;2.92;;;;;;;;;;5036999;27;92476;-71
2023/06/17 11:02:39;;;;;;;4.28;2.78;;;;;;;;;;5036945;28;92400;-71
2023/06/17 11:05:06;;;;;;;5.13;3.85;;;;;;;;;;5036372;27;93692;-72
2023/06/17 11:07:33;;;;;;;3.72;2.80;;;;;;;;;;5037148;27;92447;-71
2023/06/17 11:10:00;;;;;;;3.38;2.75;;;;;;;;;;5036835;28;93217;-71
2023/06/17 11:12:27;;;;;;;4.88;2.10;;;;;;;;;;5038074;27;93733;-72
2023/06/17 11:14:54;;;;;;;3.53;2.58;;;;;;;;;;5019338;28;93789;-71
2023/06/17 11:17:21;;;;;;;3.90;2.25;;;;;;;;;;5036139;27;93586;-72
2023/06/17 11:19:47;;;;;;;7.72;2.53;;;;;;;;;;5036577;27;92614;-71
2023/06/17 11:22:14;;;;;;;6.80;3.00;;;;;;;;;;5035129;28;94788;-72
2023/06/17 11:24:40;;;;;;;7.60;2.22;;;;;;;;;;5036004;27;93915;-72
2023/06/17 11:27:06;;;;;;;3.90;2.60;;;;;;;;;;5036447;28;92572;-72
2023/06/17 11:29:33;;;;;;;10.82;2.45;;;;;;;;;;5036390;28;93234;-72
2023/06/17 11:32:00;;;;;;;7.95;2.47;;;;;;;;;;5036375;27;92421;-72
2023/06/17 11:34:31;;;;;;;13.88;2.38;;;;;;;;;;5039069;27;92431;-72
2023/06/17 11:37:00;;;;;;;4.90;2.25;;;;;;;;;;5036260;28;93820;-72
2023/06/17 11:39:27;;;;;;;3.72;2.30;;;;;;;;;;5036685;27;91993;-72
2023/06/17 11:42:00;;;;;;;4.60;2.60;;;;;;;;;;5036411;27;92554;-72
2023/06/17 11:44:27;;;;;;;5.13;2.67;;;;;;;;;;5036242;27;96749;-72
2023/06/17 11:46:54;;;;;;;6.07;2.55;;;;;;;;;;5034405;27;94910;-72
2023/06/17 11:49:24;;;;;;;2.60;2.40;;;;;;;;;;5036651;28;99272;-72
2023/06/17 11:51:51;;;;;;;4.15;3.00;;;;;;;;;;5035968;27;93682;-72
2023/06/17 11:54:18;;;;;;;3.75;2.92;;;;;;;;;;5038864;28;92482;-72
2023/06/17 11:56:44;;;;;;;5.47;3.20;;;;;;;;;;5035629;28;93947;-72
2023/06/17 11:59:11;;;;;;;5.25;2.95;;;;;;;;;;5036074;28;92455;-72
2023/06/17 12:01:37;;;;;;;6.22;2.75;;;;;;;;;;5036306;28;94265;-72
2023/06/17 12:04:04;;;;;;;5.05;2.70;;;;;;;;;;5036943;27;91731;-72
2023/06/17 12:06:31;;;;;;;3.08;2.78;;;;;;;;;;5036338;27;92486;-72
2023/06/17 12:08:58;;;;;;;2.95;2.63;;;;;;;;;;5034911;27;93686;-72
2023/06/17 12:11:29;;;;;;;5.68;2.70;;;;;;;;;;5034220;28;96952;-72
2023/06/17 12:13:55;;;;;;;3.25;2.95;;;;;;;;;;5035594;28;92473;-72
2023/06/17 12:16:27;;;;;;;3.08;2.83;;;;;;;;;;5038282;28;93188;-72
2023/06/17 12:18:53;;;;;;;4.15;3.17;;;;;;;;;;5036146;28;92695;-72
2023/06/17 12:21:21;;;;;;;5.15;3.20;;;;;;;;;;5035538;27;93144;-72
2023/06/17 12:23:49;;;;;;;6.05;3.20;;;;;;;;;;5017532;28;93749;-72
2023/06/17 12:26:15;;;;;;;6.00;3.10;;;;;;;;;;5036084;28;92375;-72
2023/06/17 12:28:41;;;;;;;15.80;3.22;;;;;;;;;;5035877;28;93136;-72
2023/06/17 12:31:08;;;;;;;6.75;3.03;;;;;;;;;;5017626;28;93537;-72
2023/06/17 12:33:35;;;;;;;5.95;2.83;;;;;;;;;;5035224;28;92406;-72
2023/06/17 12:36:03;;;;;;;3.53;2.60;;;;;;;;;;5033508;28;94815;-72
2023/06/17 12:38:29;;;;;;;3.03;2.65;;;;;;;;;;5038793;28;94576;-72
2023/06/17 12:40:58;;;;;;;3.53;2.35;;;;;;;;;;5035018;28;93186;-73
2023/06/17 12:43:28;;;;;;;4.95;2.30;;;;;;;;;;5035190;28;93703;-72
2023/06/17 12:45:56;;;;;;;5.18;3.13;;;;;;;;;;5035030;28;92409;-73
2023/06/17 12:48:22;;;;;;;5.70;3.13;;;;;;;;;;5035444;28;93433;-72
2023/06/17 12:50:49;;;;;;;9.98;2.97;;;;;;;;;;5035104;28;93145;-73
2023/06/17 12:53:15;;;;;;;6.07;3.35;;;;;;;;;;5035544;28;91869;-72
2023/06/17 12:55:42;;;;;;;4.38;3.03;;;;;;;;;;5034616;27;92496;-73
2023/06/17 12:58:10;;;;;;;11.02;3.67;;;;;;;;;;5035741;28;94657;-72
2023/06/17 13:00:37;;;;;;;3.35;2.83;;;;;;;;;;5036423;28;95122;-72
2023/06/17 13:03:04;;;;;;;7.05;3.42;;;;;;;;;;5034995;27;93430;-72
2023/06/17 13:05:30;;;;;;;4.22;2.95;;;;;;;;;;5035348;28;92660;-72
2023/06/17 13:07:57;;;;;;;3.28;2.95;;;;;;;;;;5034732;28;93177;-72
2023/06/17 13:10:24;;;;;;;6.20;3.25;;;;;;;;;;5034884;27;96931;-72
2023/06/17 13:12:51;;;;;;;5.65;2.97;;;;;;;;;;5034735;27;92651;-73
2023/06/17 13:15:17;;;;;;;3.63;3.33;;;;;;;;;;5034937;27;93233;-72
2023/06/17 13:17:44;;;;;;;3.85;2.80;;;;;;;;;;5034731;28;92635;-73
2023/06/17 13:20:11;;;;;;;8.27;3.65;;;;;;;;;;5034804;28;92416;-72
2023/06/17 13:22:37;;;;;;;7.40;3.08;;;;;;;;;;5037040;28;93454;-73
2023/06/17 13:25:05;;;;;;;3.92;2.80;;;;;;;;;;5033333;27;94806;-72
2023/06/17 13:27:32;;;;;;;6.95;3.28;;;;;;;;;;5034377;27;95553;-72
2023/06/17 13:29:59;;;;;;;4.30;3.55;;;;;;;;;;5034441;27;93598;-72
2023/06/17 13:32:26;;;;;;;5.18;3.10;;;;;;;;;;5034900;27;92648;-72
2023/06/17 13:34:53;;;;;;;11.50;3.47;;;;;;;;;;5034317;28;93629;-73
2023/06/17 13:37:19;;;;;;;6.57;2.88;;;;;;;;;;5034090;28;92454;-73
2023/06/17 13:39:46;;;;;;;4.38;3.25;;;;;;;;;;5034333;28;92720;-73
2023/06/17 13:42:12;;;;;;;7.30;3.50;;;;;;;;;;5038085;28;95433;-73
2023/06/17 13:44:39;;;;;;;4.60;2.92;;;;;;;;;;5034166;28;92463;-73
2023/06/17 13:47:07;;;;;;;4.75;3.05;;;;;;;;;;5034073;28;92985;-72
2023/06/17 13:49:33;;;;;;;9.73;3.50;;;;;;;;;;5031027;28;96171;-73
2023/06/17 13:52:01;;;;;;;4.03;3.35;;;;;;;;;;5034037;28;92505;-73
2023/06/17 13:54:28;;;;;;;4.03;3.28;;;;;;;;;;5034421;28;94379;-73
2023/06/17 13:56:54;;;;;;;4.25;3.22;;;;;;;;;;5034275;28;92377;-73
2023/06/17 13:59:21;;;;;;;3.35;3.05;;;;;;;;;;5034535;28;92477;-72
2023/06/17 14:01:48;;;;;;;8.13;3.08;;;;;;;;;;5034284;27;93545;-73
2023/06/17 14:04:14;;;;;;;8.02;2.72;;;;;;;;;;5037173;28;94545;-73
2023/06/17 14:06:45;;;;;;;5.07;2.92;;;;;;;;;;5034844;28;94446;-73
2023/06/17 14:09:13;;;;;;;6.72;3.20;;;;;;;;;;5033872;28;93570;-73
2023/06/17 14:11:40;;;;;;;28.38;3.72;;;;;;;;;;5034228;28;92904;-73
2023/06/17 14:14:07;;;;;;;7.65;3.33;;;;;;;;;;5032359;27;94807;-73
2023/06/17 14:16:33;;;;;;;4.22;3.30;;;;;;;;;;5033515;27;93533;-73
2023/06/17 14:19:00;;;;;;;3.88;3.05;;;;;;;;;;5034012;27;92521;-73
2023/06/17 14:21:26;;;;;;;4.95;3.13;;;;;;;;;;5033960;27;92447;-74
2023/06/17 14:24:06;;;;;;;4.55;3.22;;;;;;;;;;5036494;28;93540;-73
2023/06/17 14:26:33;;;;;;;4.43;3.17;;;;;;;;;;5039791;27;92885;-73
2023/06/17 14:29:00;;;;;;;4.22;3.30;;;;;;;;;;5037232;27;93571;-73
2023/06/17 14:31:27;;;;;;;7.05;3.53;;;;;;;;;;5019496;28;92058;-73
2023/06/17 14:33:53;;;;;;;4.75;2.80;;;;;;;;;;5037431;27;93613;-73
2023/06/17 14:36:20;;;;;;;9.10;3.15;;;;;;;;;;5037073;28;93501;-73
2023/06/17 14:38:46;;;;;;;3.38;3.08;;;;;;;;;;5035796;27;94843;-73
2023/06/17 14:41:13;;;;;;;3.55;2.88;;;;;;;;;;5037546;28;96433;-73